LFCK/DCM METAR and TAF weather

Enter ICAO airport designator
Station Type Date Time Source
LFCK METAR 2022/11/30 11:00 UTC NOAA

LFCK 301100Z AUTO VRB03KT 9999 OVC009 05/03 Q1019 BECMG BKN012


Station Type Date Time Source
LFCK Decoded METAR 2022/11/30 11:00 UTC NOAA

Station name not available
Nov 30, 2022 - 06:00 AM EST / 2022.11.30 1100 UTC
Wind: Variable at 3 MPH (3 KT):0
Visibility: greater than 7 mile(s):0
Sky conditions: overcast
Temperature: 41 F (5 C)
Dew Point: 37 F (3 C)
Relative Humidity: 86%
Pressure (altimeter): 30.09 in. Hg (1019 hPa)
ob: LFCK 301100Z AUTO VRB03KT 9999 OVC009 05/03 Q1019 BECMG BKN012
cycle: 11

Station Type Date Time Source
LFCK TAF UTC NOAA

Error!

Example: see airport list